Time;durP1;ratioP1;P1;durP2;ratioP2;P2;SDS_P1;SDS_P2;PMS_P1;PMS_P2;Temp;Humidity;BMP_temperature;BMP_pressure;BME280_temperature;BME280_humidity;BME280_pressure;Samples;Min_cycle;Max_cycle;Signal;HPM_P1;HPM_P2
2022/04/15 00:02:09;;;;;;;33.75;24.60;;;;;;;10.91;73.96;101496.67;1669540;83;21042;-93
2022/04/15 00:04:36;;;;;;;31.85;23.50;;;;;;;10.93;73.98;101491.92;1677661;84;21093;-94
2022/04/15 00:07:04;;;;;;;35.25;24.70;;;;;;;10.96;73.93;101497.70;1672530;84;21099;-92
2022/04/15 00:09:31;;;;;;;31.37;24.18;;;;;;;10.98;73.88;101501.29;1655788;85;21746;-93
2022/04/15 00:12:00;;;;;;;35.48;23.75;;;;;;;10.99;73.89;101500.03;1673719;83;21065;-92
2022/04/15 00:14:29;;;;;;;33.85;23.98;;;;;;;11.00;73.87;101501.84;1676634;83;21057;-93
2022/04/15 00:16:57;;;;;;;32.55;24.40;;;;;;;11.02;73.92;101505.42;1676718;83;21598;-93
2022/04/15 00:19:27;;;;;;;36.13;24.05;;;;;;;11.06;73.95;101506.43;1672542;83;21329;-94
2022/04/15 00:21:52;;;;;;;35.35;23.65;;;;;;;11.09;73.89;101510.07;1676306;83;21706;-93
2022/04/15 00:24:19;;;;;;;32.40;22.95;;;;;;;11.11;73.79;101505.25;1672267;83;21153;-94
2022/04/15 00:26:46;;;;;;;36.23;24.70;;;;;;;11.12;73.81;101503.11;1672190;84;21140;-93
2022/04/15 00:29:13;;;;;;;33.53;22.50;;;;;;;11.13;73.82;101504.48;1673632;83;21546;-92
2022/04/15 00:31:39;;;;;;;29.87;22.73;;;;;;;11.14;73.80;101508.02;1676480;83;21637;-89
2022/04/15 00:34:06;;;;;;;32.00;23.67;;;;;;;11.14;73.72;101502.31;1677176;83;21805;-94
2022/04/15 00:36:33;;;;;;;30.48;22.30;;;;;;;11.13;73.62;101503.17;1668857;83;21146;-93
2022/04/15 00:39:00;;;;;;;29.02;21.60;;;;;;;11.10;73.64;101500.42;1658209;83;21134;-93
2022/04/15 00:41:31;;;;;;;29.42;22.05;;;;;;;11.07;73.60;101492.39;1609350;86;21106;-93
2022/04/15 00:43:58;;;;;;;29.23;20.60;;;;;;;11.06;73.59;101498.53;1626684;87;22189;-93
2022/04/15 00:46:25;;;;;;;29.80;21.52;;;;;;;11.02;73.63;101486.09;1624907;87;21861;-93
2022/04/15 00:48:52;;;;;;;27.82;21.48;;;;;;;11.02;73.69;101484.34;1674131;83;21655;-93
2022/04/15 00:51:19;;;;;;;32.78;21.97;;;;;;;11.01;73.69;101477.70;1675390;83;21092;-93
2022/04/15 00:53:46;;;;;;;32.80;21.93;;;;;;;10.97;73.66;101471.86;1682769;83;21073;-93
2022/04/15 00:56:13;;;;;;;31.10;21.85;;;;;;;10.96;73.75;101476.24;1713485;82;21110;-92
2022/04/15 00:58:40;;;;;;;30.40;21.40;;;;;;;10.93;73.71;101476.12;1676149;84;22474;-92
2022/04/15 01:01:07;;;;;;;30.70;21.00;;;;;;;10.90;73.69;101478.63;1678976;84;21061;-92
2022/04/15 01:03:34;;;;;;;29.35;20.70;;;;;;;10.87;73.74;101478.55;1713872;82;21077;-95
2022/04/15 01:06:00;;;;;;;30.52;21.70;;;;;;;10.86;73.82;101476.74;1683190;83;21346;-93
2022/04/15 01:08:29;;;;;;;28.00;20.62;;;;;;;10.85;73.77;101473.22;1710410;82;21069;-93
2022/04/15 01:10:58;;;;;;;26.37;19.62;;;;;;;10.87;73.90;101474.16;1713803;81;22671;-94
2022/04/15 01:13:26;;;;;;;27.07;19.98;;;;;;;10.88;73.83;101469.78;1675563;83;21102;-92
2022/04/15 01:15:56;;;;;;;28.02;20.00;;;;;;;10.86;73.84;101473.67;1648630;85;21077;-93
2022/04/15 01:18:23;;;;;;;25.00;18.35;;;;;;;10.84;73.82;101471.41;1715467;81;20994;-93
2022/04/15 01:20:51;;;;;;;26.52;20.12;;;;;;;10.80;73.86;101474.78;1676208;83;21074;-93
2022/04/15 01:23:18;;;;;;;27.13;20.45;;;;;;;10.78;73.92;101470.31;1683559;83;22541;-92
2022/04/15 01:25:45;;;;;;;24.30;19.30;;;;;;;10.79;73.96;101469.45;1675452;83;21162;-90
2022/04/15 01:28:16;;;;;;;25.65;19.75;;;;;;;10.79;73.98;101470.77;1648201;85;21097;-91
2022/04/15 01:30:40;;;;;;;24.95;19.82;;;;;;;10.80;74.03;101472.15;1681815;83;21085;-93
2022/04/15 01:33:07;;;;;;;28.95;20.32;;;;;;;10.78;74.02;101471.20;1715092;82;21125;-94
2022/04/15 01:35:33;;;;;;;24.18;18.98;;;;;;;10.78;74.05;101469.00;1688001;81;21752;-94
2022/04/15 01:38:02;;;;;;;25.52;19.48;;;;;;;10.78;74.02;101475.58;1687555;83;21101;-94
2022/04/15 01:40:29;;;;;;;25.95;19.77;;;;;;;10.78;74.02;101469.89;1683244;83;21531;-94
2022/04/15 01:42:56;;;;;;;26.62;19.90;;;;;;;10.78;74.04;101463.30;1732494;81;21042;-93
2022/04/15 01:45:23;;;;;;;24.20;19.52;;;;;;;10.79;74.02;101461.55;1680525;83;21183;-93
2022/04/15 01:47:52;;;;;;;27.90;19.02;;;;;;;10.77;74.03;101458.86;1715651;82;21743;-93
2022/04/15 01:50:19;;;;;;;27.48;19.02;;;;;;;10.79;74.00;101456.29;1661403;84;21062;-93
2022/04/15 01:52:46;;;;;;;28.02;19.12;;;;;;;10.79;73.95;101457.21;1679385;83;21045;-92
2022/04/15 01:55:13;;;;;;;22.80;18.40;;;;;;;10.79;73.95;101451.94;1668453;83;21151;-92
2022/04/15 01:57:40;;;;;;;25.60;19.10;;;;;;;10.78;73.88;101455.41;1655861;86;21110;-92
2022/04/15 02:00:08;;;;;;;29.70;18.77;;;;;;;10.78;73.84;101457.15;1682701;85;21798;-95
2022/04/15 02:02:35;;;;;;;24.40;19.10;;;;;;;10.75;73.81;101452.65;1678118;84;21126;-93
2022/04/15 02:05:04;;;;;;;25.55;19.48;;;;;;;10.72;73.78;101451.64;1659226;84;21073;-94
2022/04/15 02:07:31;;;;;;;24.55;18.37;;;;;;;10.69;73.80;101452.44;1724847;81;21168;-89
2022/04/15 02:09:58;;;;;;;23.50;18.55;;;;;;;10.66;73.80;101448.37;1716954;83;20989;-90
2022/04/15 02:12:24;;;;;;;27.58;19.65;;;;;;;10.63;73.85;101446.53;1725463;81;22016;-91
2022/04/15 02:14:51;;;;;;;26.85;18.48;;;;;;;10.65;73.92;101448.80;1738917;81;21601;-89
2022/04/15 02:17:18;;;;;;;25.27;18.75;;;;;;;10.66;73.91;101446.66;1660397;84;21544;-90
2022/04/15 02:19:45;;;;;;;25.50;18.75;;;;;;;10.69;74.00;101452.44;1728279;81;21122;-93
2022/04/15 02:22:14;;;;;;;23.05;17.77;;;;;;;10.74;74.01;101453.94;1725483;81;21377;-94
2022/04/15 02:24:41;;;;;;;21.42;17.37;;;;;;;10.77;74.01;101456.23;1721583;81;21701;-93
2022/04/15 02:27:07;;;;;;;21.23;18.07;;;;;;;10.80;73.97;101452.40;1726960;81;21539;-93
2022/04/15 02:29:35;;;;;;;25.52;18.87;;;;;;;10.83;73.93;101461.73;1727071;81;21108;-93
2022/04/15 02:32:02;;;;;;;25.75;19.10;;;;;;;10.86;73.86;101460.50;1726851;81;21169;-93
2022/04/15 02:34:31;;;;;;;23.42;18.60;;;;;;;10.82;73.86;101446.77;1659420;83;21316;-94
2022/04/15 02:36:58;;;;;;;25.00;19.25;;;;;;;10.93;73.79;101456.80;1723265;81;21747;-94
2022/04/15 02:39:25;;;;;;;20.92;18.00;;;;;;;10.98;73.76;101457.43;1719732;81;21620;-95
2022/04/15 02:41:52;;;;;;;24.27;19.25;;;;;;;11.01;73.69;101462.78;1724772;81;21092;-94
2022/04/15 02:44:21;;;;;;;28.57;19.37;;;;;;;11.02;73.61;101466.34;1722871;82;21125;-94
2022/04/15 02:46:48;;;;;;;24.52;18.32;;;;;;;11.02;73.55;101472.49;1665100;83;21059;-93
2022/04/15 02:49:15;;;;;;;26.75;18.67;;;;;;;11.02;73.57;101471.17;1680398;84;21773;-92
2022/04/15 02:51:41;;;;;;;30.35;20.60;;;;;;;11.06;73.57;101471.75;1682894;83;21070;-93
2022/04/15 02:54:08;;;;;;;28.02;21.33;;;;;;;11.07;73.49;101470.92;1666565;84;21603;-93
2022/04/15 02:56:50;;;;;;;29.02;21.80;;;;;;;11.06;73.44;101465.16;1681496;83;21756;-92
2022/04/15 02:59:20;;;;;;;33.18;24.43;;;;;;;11.04;73.47;101463.33;1681241;84;21074;-94
2022/04/15 03:01:49;;;;;;;38.78;27.07;;;;;;;11.04;73.52;101467.28;1673959;83;21731;-91
2022/04/15 03:04:15;;;;;;;43.38;30.27;;;;;;;11.02;73.57;101469.86;1679514;83;21415;-91
2022/04/15 03:06:42;;;;;;;41.50;30.02;;;;;;;11.03;73.59;101472.95;1678950;83;21646;-91
2022/04/15 03:09:09;;;;;;;45.98;33.53;;;;;;;11.01;73.56;101470.69;1677243;83;21065;-91
2022/04/15 03:11:38;;;;;;;51.33;36.03;;;;;;;10.95;73.51;101467.84;1685051;84;20986;-91
2022/04/15 03:14:08;;;;;;;50.00;38.05;;;;;;;10.88;73.63;101471.98;1715157;82;21784;-92
2022/04/15 03:16:33;;;;;;;52.30;38.28;;;;;;;10.79;73.57;101469.45;1691822;83;21317;-93
2022/04/15 03:19:00;;;;;;;53.60;36.75;;;;;;;10.67;73.67;101475.19;1714894;81;21076;-92
2022/04/15 03:21:27;;;;;;;54.73;37.75;;;;;;;10.56;73.81;101477.42;1716538;81;21078;-93
2022/04/15 03:23:54;;;;;;;52.67;37.55;;;;;;;10.43;73.96;101473.44;1681798;83;21097;-93
2022/04/15 03:26:21;;;;;;;59.80;40.88;;;;;;;10.37;74.18;101472.33;1680228;83;21771;-91
2022/04/15 03:28:48;;;;;;;55.17;39.13;;;;;;;10.32;74.37;101472.14;1712605;81;21654;-90
2022/04/15 03:31:15;;;;;;;60.67;41.85;;;;;;;10.25;74.52;101467.48;1711380;81;21071;-90
2022/04/15 03:33:45;;;;;;;57.78;40.55;;;;;;;10.20;74.59;101471.66;1712987;82;21082;-90
2022/04/15 03:36:12;;;;;;;57.88;40.67;;;;;;;10.15;74.78;101477.16;1714756;81;21109;-94
2022/04/15 03:38:40;;;;;;;55.58;40.23;;;;;;;10.14;74.95;101471.01;1710585;81;21762;-94
2022/04/15 03:41:06;;;;;;;61.20;42.20;;;;;;;10.14;75.08;101476.27;1710084;81;21097;-94
2022/04/15 03:43:33;;;;;;;54.93;41.13;;;;;;;10.12;75.16;101481.47;1709978;81;21062;-93
2022/04/15 03:46:00;;;;;;;62.85;42.60;;;;;;;10.11;75.16;101470.87;1710064;82;21081;-93
2022/04/15 03:48:27;;;;;;;62.93;42.50;;;;;;;10.07;75.25;101472.49;1715601;81;21113;-91
2022/04/15 03:50:54;;;;;;;56.70;42.53;;;;;;;10.06;75.34;101471.11;1710897;81;21816;-92
2022/04/15 03:53:21;;;;;;;56.50;41.73;;;;;;;10.03;75.42;101472.33;1721615;81;21354;-94
2022/04/15 03:55:50;;;;;;;62.80;44.10;;;;;;;10.01;75.54;101478.84;1721075;81;21049;-93
2022/04/15 03:58:21;;;;;;;59.15;41.33;;;;;;;10.05;75.58;101475.91;1691642;82;21113;-92
2022/04/15 04:01:08;;;;;;;62.93;41.92;;;;;;;10.01;75.54;101477.52;1695289;83;21036;-92
2022/04/15 04:03:35;;;;;;;59.15;40.83;;;;;;;9.99;75.56;101475.26;1697383;83;21865;-91
2022/04/15 04:06:08;;;;;;;60.28;42.15;;;;;;;9.98;75.58;101480.45;1694224;84;21061;-91
2022/04/15 04:08:35;;;;;;;59.90;42.33;;;;;;;9.97;75.61;101485.25;1748577;81;21064;-88
2022/04/15 04:11:02;;;;;;;60.95;41.08;;;;;;;9.92;75.62;101481.99;1741787;81;21061;-88
2022/04/15 04:13:29;;;;;;;59.77;41.00;;;;;;;9.95;75.80;101482.55;1700807;83;21432;-86
2022/04/15 04:15:57;;;;;;;61.58;43.68;;;;;;;9.98;75.83;101487.02;1733516;82;21746;-88
2022/04/15 04:18:24;;;;;;;62.83;43.95;;;;;;;10.03;76.00;101491.63;1740136;81;21117;-87
2022/04/15 04:20:51;;;;;;;62.75;43.65;;;;;;;10.07;75.89;101490.91;1746498;81;21010;-89
2022/04/15 04:23:18;;;;;;;63.42;43.00;;;;;;;10.15;75.99;101487.68;1716972;82;21589;-88
2022/04/15 04:25:45;;;;;;;66.20;43.73;;;;;;;10.18;75.96;101487.37;1703034;83;21085;-88
2022/04/15 04:28:11;;;;;;;59.27;42.50;;;;;;;10.29;76.02;101491.31;1728710;81;21155;-88
2022/04/15 04:30:39;;;;;;;56.53;39.83;;;;;;;10.36;75.88;101488.55;1742388;81;20966;-86
2022/04/15 04:33:39;;;;;;;59.45;41.23;;;;;;;10.40;75.77;101487.82;1730245;83;21041;-91
2022/04/15 04:36:06;;;;;;;59.05;40.95;;;;;;;10.45;75.80;101490.61;1734603;82;21034;-90
2022/04/15 04:38:33;;;;;;;60.40;41.30;;;;;;;10.51;75.71;101493.49;1735995;82;21057;-86
2022/04/15 04:41:00;;;;;;;63.20;40.12;;;;;;;10.55;75.68;101493.16;1741334;82;22551;-89
2022/04/15 04:43:27;;;;;;;60.67;40.90;;;;;;;10.58;75.64;101492.85;1730244;82;21860;-87
2022/04/15 04:45:54;;;;;;;62.33;41.10;;;;;;;10.62;75.61;101496.09;1733739;82;21046;-89
2022/04/15 04:48:20;;;;;;;67.82;43.33;;;;;;;10.67;75.56;101490.98;1737952;81;21049;-85
2022/04/15 04:50:47;;;;;;;62.90;41.85;;;;;;;10.74;75.52;101494.75;1728908;81;21063;-86
2022/04/15 04:53:14;;;;;;;66.47;42.48;;;;;;;10.79;75.47;101490.52;1730236;81;22582;-88
2022/04/15 04:55:43;;;;;;;60.38;40.58;;;;;;;10.86;75.46;101493.86;1717851;82;21021;-88
2022/04/15 04:58:10;;;;;;;62.65;40.85;;;;;;;10.94;75.37;101491.49;1679955;84;21077;-86
2022/04/15 05:00:37;;;;;;;58.92;40.60;;;;;;;11.00;75.21;101496.97;1674842;84;21533;-91
2022/04/15 05:03:05;;;;;;;57.55;41.05;;;;;;;11.04;75.17;101499.78;1727825;82;21097;-89
2022/04/15 05:05:34;;;;;;;61.10;40.25;;;;;;;11.08;75.12;101501.67;1730891;82;21819;-89
2022/04/15 05:08:02;;;;;;;61.10;42.00;;;;;;;10.96;75.16;101463.47;1715798;82;21049;-91
2022/04/15 05:10:28;;;;;;;60.63;40.67;;;;;;;11.26;75.11;101510.66;1729651;82;21096;-90
2022/04/15 05:12:56;;;;;;;56.48;39.98;;;;;;;11.32;75.00;101506.02;1727707;82;21550;-90
2022/04/15 05:15:24;;;;;;;58.60;40.58;;;;;;;11.35;74.86;101508.73;1675302;84;21116;-90
2022/04/15 05:17:51;;;;;;;58.83;41.25;;;;;;;11.39;74.83;101507.09;1695789;83;22520;-93
2022/04/15 05:20:20;;;;;;;58.98;40.23;;;;;;;11.42;74.71;101515.13;1758173;81;21018;-91
2022/04/15 05:23:17;;;;;;;57.83;40.65;;;;;;;11.45;74.66;101506.02;1737779;82;21069;-93
2022/04/15 05:29:45;;;;;;;56.65;40.70;;;;;;;11.52;74.68;101504.03;1732341;82;21113;-88
2022/04/15 05:32:13;;;;;;;60.08;42.30;;;;;;;11.51;74.47;101514.12;1741273;81;22524;-87
2022/04/15 05:35:48;;;;;;;56.65;40.95;;;;;;;11.49;74.44;101511.86;1760320;81;21054;-94
2022/04/15 05:38:18;;;;;;;57.93;40.08;;;;;;;11.46;74.48;101511.73;1737066;81;21072;-90
2022/04/15 05:40:45;;;;;;;62.10;43.30;;;;;;;11.44;74.47;101514.31;1734695;81;21057;-88
2022/04/15 05:43:12;;;;;;;60.60;42.80;;;;;;;11.45;74.66;101515.23;1725529;81;21517;-89
2022/04/15 05:46:01;;;;;;;54.93;40.78;;;;;;;11.47;74.61;101524.98;1745453;81;22590;-95
2022/04/15 05:48:28;;;;;;;59.38;41.35;;;;;;;11.47;74.57;101524.98;1659623;83;21112;-84
2022/04/15 05:50:55;;;;;;;53.98;41.18;;;;;;;11.51;74.73;101522.03;1666730;83;21063;-85
2022/04/15 05:53:24;;;;;;;60.92;42.27;;;;;;;11.53;74.64;101526.04;1682672;83;21093;-84
2022/04/15 05:55:50;;;;;;;60.38;44.40;;;;;;;11.46;74.77;101503.40;1683750;84;22057;-84
2022/04/15 05:58:19;;;;;;;60.73;43.45;;;;;;;11.65;74.78;101519.83;1665950;83;22567;-83
2022/04/15 06:00:48;;;;;;;61.53;43.63;;;;;;;11.73;74.71;101526.67;1672324;84;21126;-82
2022/04/15 06:03:17;;;;;;;54.03;41.83;;;;;;;11.78;74.73;101528.61;1671647;84;21124;-82
2022/04/15 06:05:47;;;;;;;55.28;40.63;;;;;;;11.87;74.81;101526.28;1690917;82;21137;-83
2022/04/15 06:08:14;;;;;;;53.02;40.30;;;;;;;11.98;74.67;101534.58;1693174;82;21088;-83
2022/04/15 06:10:41;;;;;;;64.32;43.10;;;;;;;11.89;74.55;101509.62;1691557;82;22323;-83
2022/04/15 06:13:19;;;;;;;61.13;42.15;;;;;;;11.90;73.95;101532.13;1694382;82;22178;-83
2022/04/15 06:15:58;;;;;;;62.30;41.88;;;;;;;11.56;73.75;101524.41;1678943;83;21102;-83
2022/04/15 06:18:24;;;;;;;61.58;40.70;;;;;;;11.36;73.57;101544.80;1692867;82;21100;-83
2022/04/15 06:21:00;;;;;;;62.05;41.68;;;;;;;11.18;74.01;101549.00;1699247;82;21138;-83
2022/04/15 06:23:22;;;;;;;60.25;41.08;;;;;;;11.10;74.19;101551.80;1688423;82;21941;-84
2022/04/15 06:25:55;;;;;;;63.07;41.93;;;;;;;11.06;74.38;101559.13;1677976;83;21104;-83
2022/04/15 06:28:26;;;;;;;54.42;37.53;;;;;;;11.05;74.60;101554.25;1684269;82;21092;-84
2022/04/15 06:30:57;;;;;;;55.92;39.20;;;;;;;11.09;74.80;101562.77;1675639;83;21083;-90
2022/04/15 06:33:24;;;;;;;67.32;40.88;;;;;;;11.17;74.87;101565.67;1684070;82;21193;-90
2022/04/15 06:35:51;;;;;;;60.45;38.90;;;;;;;11.24;74.80;101556.23;1680372;82;21727;-88
2022/04/15 06:38:22;;;;;;;65.28;39.80;;;;;;;11.28;74.84;101562.99;1656402;84;21143;-88
2022/04/15 06:40:47;;;;;;;62.43;38.58;;;;;;;11.31;74.74;101565.26;1691053;82;21171;-87
2022/04/15 06:43:17;;;;;;;65.47;40.20;;;;;;;11.32;74.62;101567.03;1653700;84;21159;-87
2022/04/15 06:45:42;;;;;;;64.50;38.78;;;;;;;11.23;74.37;101572.89;1652245;83;21136;-88
2022/04/15 06:48:09;;;;;;;87.15;48.87;;;;;;;11.09;74.39;101583.84;1650955;83;21906;-88
2022/04/15 06:50:36;;;;;;;82.53;45.15;;;;;;;10.88;74.27;101582.61;1659651;84;21627;-89
2022/04/15 06:53:11;;;;;;;76.62;38.28;;;;;;;10.60;73.85;101591.21;1661760;84;21176;-86
2022/04/15 06:55:40;;;;;;;68.05;34.88;;;;;;;10.29;73.48;101604.47;1657552;84;21101;-87
2022/04/15 06:58:41;;;;;;;63.70;33.30;;;;;;;9.87;73.60;101609.80;1652463;84;21114;-84
2022/04/15 07:01:12;;;;;;;59.88;31.65;;;;;;;9.50;73.94;101613.48;1643735;84;21901;-87
2022/04/15 07:04:30;;;;;;;;;;;;;;;;;;;;;
2022/04/15 07:07:03;;;;;;;50.85;28.15;;;;;;;8.93;74.51;101610.06;1590296;88;21580;-89
2022/04/15 07:09:29;;;;;;;47.53;27.87;;;;;;;8.63;75.10;101606.50;1609653;84;21169;-88
2022/04/15 07:11:58;;;;;;;45.50;24.65;;;;;;;8.58;75.33;101614.60;1690573;82;22313;-87
2022/04/15 07:14:24;;;;;;;43.10;26.17;;;;;;;8.56;75.65;101622.81;1654530;84;21782;-86
2022/04/15 07:16:54;;;;;;;36.77;22.37;;;;;;;8.54;75.83;101619.23;1656783;84;21132;-91
2022/04/15 07:19:21;;;;;;;36.35;22.93;;;;;;;8.54;76.07;101620.12;1648749;83;21619;-93
2022/04/15 07:21:47;;;;;;;34.13;21.17;;;;;;;8.53;76.00;101622.66;1660226;84;21071;-91
2022/04/15 07:24:14;;;;;;;35.30;19.85;;;;;;;8.50;75.87;101626.44;1665814;84;21125;-90
2022/04/15 07:26:41;;;;;;;33.73;19.60;;;;;;;8.44;75.85;101623.53;1618709;86;22277;-90
2022/04/15 07:29:08;;;;;;;29.18;18.90;;;;;;;8.37;76.09;101632.40;1646165;84;21065;-90
2022/04/15 07:31:42;;;;;;;32.83;19.67;;;;;;;8.38;76.38;101630.24;1659193;83;21084;-86
2022/04/15 07:34:08;;;;;;;30.60;20.02;;;;;;;8.35;76.31;101640.61;1649828;84;21547;-85
2022/04/15 07:39:07;;;;;;;35.85;19.75;;;;;;;8.49;76.62;101637.78;1661813;84;21714;-85
2022/04/15 07:41:36;;;;;;;32.13;19.42;;;;;;;8.56;76.62;101638.14;1661712;84;21100;-85
2022/04/15 07:44:08;;;;;;;33.50;20.20;;;;;;;8.70;76.64;101644.45;1649656;84;21513;-86
2022/04/15 07:46:38;;;;;;;31.68;19.32;;;;;;;8.74;76.41;101647.70;1660479;81;21634;-86
2022/04/15 07:49:05;;;;;;;25.08;17.57;;;;;;;8.80;76.48;101642.72;1681830;82;21075;-86
2022/04/15 07:51:32;;;;;;;24.40;17.37;;;;;;;8.97;76.56;101643.92;1680317;83;21762;-86
2022/04/15 07:53:59;;;;;;;24.92;16.65;;;;;;;8.97;75.88;101653.11;1679937;84;21081;-86
2022/04/15 07:56:26;;;;;;;21.95;16.00;;;;;;;9.02;76.15;101653.81;1687582;81;21336;-86
2022/04/15 07:58:56;;;;;;;23.40;16.20;;;;;;;9.24;76.28;101654.37;1675208;81;21160;-86
2022/04/15 08:01:22;;;;;;;19.65;13.93;;;;;;;9.36;75.81;101653.13;1688800;81;21077;-86
2022/04/15 08:03:49;;;;;;;17.95;14.10;;;;;;;9.37;75.38;101656.25;1665966;82;21754;-86
2022/04/15 08:06:16;;;;;;;16.70;13.55;;;;;;;9.24;75.38;101635.09;1693445;82;21174;-86
2022/04/15 08:08:43;;;;;;;16.02;13.03;;;;;;;9.51;75.68;101661.25;1706992;81;21572;-87
2022/04/15 08:11:10;;;;;;;12.33;11.03;;;;;;;9.61;75.15;101659.03;1689640;82;21525;-86
2022/04/15 08:13:36;;;;;;;16.10;11.75;;;;;;;9.68;75.03;101665.04;1684881;83;21072;-86
2022/04/15 08:16:04;;;;;;;14.60;11.65;;;;;;;9.68;74.66;101667.25;1674269;84;21751;-86
2022/04/15 08:18:37;;;;;;;15.90;12.63;;;;;;;9.73;74.56;101662.20;1684569;83;21081;-87
2022/04/15 08:21:04;;;;;;;16.57;13.78;;;;;;;9.82;74.65;101671.80;1668777;84;21101;-87
2022/04/15 08:23:31;;;;;;;16.30;12.63;;;;;;;9.88;74.20;101664.16;1684940;83;21148;-87
2022/04/15 08:26:00;;;;;;;14.10;11.95;;;;;;;9.96;74.32;101670.17;1692713;81;21095;-87
2022/04/15 08:28:27;;;;;;;17.37;12.55;;;;;;;10.04;73.94;101679.27;1682763;83;21782;-87
2022/04/15 08:30:53;;;;;;;16.80;12.68;;;;;;;10.03;73.54;101681.44;1692359;82;21575;-87
2022/04/15 08:33:21;;;;;;;15.90;13.05;;;;;;;10.00;73.35;101686.55;1693524;82;20962;-87
2022/04/15 08:35:48;;;;;;;17.27;13.43;;;;;;;10.07;73.89;101684.67;1692542;81;21081;-87
2022/04/15 08:38:14;;;;;;;17.45;13.38;;;;;;;10.25;73.82;101693.34;1679257;82;21104;-88
2022/04/15 08:40:50;;;;;;;17.30;13.88;;;;;;;10.32;72.91;101691.88;1683285;82;21837;-86
2022/04/15 08:43:16;;;;;;;14.55;12.78;;;;;;;10.30;72.82;101697.10;1682459;82;21089;-95
2022/04/15 08:45:49;;;;;;;17.23;14.15;;;;;;;10.22;72.77;101701.09;1687130;82;21091;-92
2022/04/15 08:48:16;;;;;;;17.92;15.28;;;;;;;10.26;72.57;101706.95;1684476;82;21281;-91
2022/04/15 08:50:45;;;;;;;21.07;17.32;;;;;;;10.11;72.44;101699.32;1639316;85;21092;-90
2022/04/15 08:53:12;;;;;;;22.87;18.77;;;;;;;10.04;72.10;101709.52;1691833;83;21919;-91
2022/04/15 08:55:41;;;;;;;26.82;20.95;;;;;;;9.85;72.23;101699.56;1654970;84;21055;-90
2022/04/15 08:58:07;;;;;;;27.52;20.40;;;;;;;9.82;71.96;101716.50;1645460;85;21150;-91
2022/04/15 09:00:34;;;;;;;27.58;21.23;;;;;;;9.70;72.15;101715.95;1651529;85;21095;-91
2022/04/15 09:03:04;;;;;;;26.65;22.05;;;;;;;9.61;72.34;101719.09;1655096;85;21115;-91
2022/04/15 09:05:32;;;;;;;29.90;23.38;;;;;;;9.56;72.21;101722.35;1640068;85;21785;-91
2022/04/15 09:08:08;;;;;;;28.05;23.85;;;;;;;9.36;72.54;101726.70;1653062;84;21555;-90
2022/04/15 09:10:35;;;;;;;26.05;21.62;;;;;;;9.38;72.72;101732.49;1657370;85;21091;-90
2022/04/15 09:13:08;;;;;;;31.20;25.77;;;;;;;9.21;72.30;101736.08;1639330;85;21107;-92
2022/04/15 09:15:36;;;;;;;31.15;25.55;;;;;;;9.00;72.83;101732.05;1663264;84;21090;-90
2022/04/15 09:18:03;;;;;;;34.95;26.40;;;;;;;8.97;73.18;101731.47;1656406;84;21793;-90
2022/04/15 09:20:35;;;;;;;29.92;24.60;;;;;;;9.07;73.27;101738.08;1659187;84;21087;-92
2022/04/15 09:23:09;;;;;;;32.42;25.48;;;;;;;9.16;73.23;101747.70;1656115;84;21527;-92
2022/04/15 09:25:41;;;;;;;34.48;27.25;;;;;;;9.20;73.26;101755.32;1686528;82;21090;-91
2022/04/15 09:28:07;;;;;;;35.43;26.07;;;;;;;9.19;73.13;101749.56;1695601;82;21050;-92
2022/04/15 09:30:39;;;;;;;33.85;26.00;;;;;;;9.13;72.85;101749.75;1659260;83;22364;-92
2022/04/15 09:33:09;;;;;;;38.53;27.67;;;;;;;8.90;72.41;101759.18;1688223;83;21149;-90
2022/04/15 09:35:37;;;;;;;42.20;30.52;;;;;;;8.71;72.88;101767.00;1618155;85;21143;-91
2022/04/15 09:38:05;;;;;;;44.75;30.20;;;;;;;8.65;73.07;101769.30;1670718;82;21096;-92
2022/04/15 09:40:36;;;;;;;43.50;30.20;;;;;;;8.64;73.55;101768.41;1640244;84;21234;-90
2022/04/15 09:43:02;;;;;;;47.27;30.52;;;;;;;8.61;73.28;101775.23;1652093;84;22109;-91
2022/04/15 09:45:36;;;;;;;51.75;32.15;;;;;;;8.51;73.17;101794.88;1650012;84;21106;-89
2022/04/15 09:48:07;;;;;;;52.03;34.20;;;;;;;8.32;73.28;101783.42;1661350;82;21043;-90
2022/04/15 09:50:44;;;;;;;52.93;34.73;;;;;;;8.22;73.52;101789.03;1675109;83;21225;-90
2022/04/15 09:53:12;;;;;;;60.83;34.78;;;;;;;8.08;73.67;101788.30;1701513;82;21654;-91
2022/04/15 09:55:47;;;;;;;60.58;34.65;;;;;;;8.00;73.90;101780.88;1670373;84;21591;-92
2022/04/15 09:58:18;;;;;;;51.13;32.53;;;;;;;8.01;74.21;101791.84;1663851;84;21073;-90
2022/04/15 10:00:51;;;;;;;49.30;30.43;;;;;;;8.00;74.36;101799.23;1659766;84;21295;-92
2022/04/15 10:03:24;;;;;;;44.50;28.30;;;;;;;7.96;74.13;101793.81;1632813;83;21089;-91
2022/04/15 10:05:56;;;;;;;37.35;25.40;;;;;;;7.91;74.13;101798.33;1628099;85;21049;-90
2022/04/15 10:08:30;;;;;;;35.05;23.92;;;;;;;7.81;74.07;101805.20;1666349;84;21846;-92
2022/04/15 10:10:56;;;;;;;37.00;22.27;;;;;;;7.71;74.30;101816.50;1636567;85;21024;-90
2022/04/15 10:13:27;;;;;;;41.70;23.22;;;;;;;7.44;74.32;101783.18;1619225;86;21121;-90
2022/04/15 10:15:54;;;;;;;43.40;23.07;;;;;;;7.47;74.65;101810.86;1661592;84;21087;-90
2022/04/15 10:18:23;;;;;;;32.55;19.25;;;;;;;7.43;74.86;101808.87;1660500;84;21576;-91
2022/04/15 10:20:51;;;;;;;23.20;14.53;;;;;;;7.45;74.88;101807.64;1630528;84;21814;-91
2022/04/15 10:23:31;;;;;;;20.27;12.53;;;;;;;7.37;74.70;101819.91;1648200;84;20993;-91
2022/04/15 10:26:06;;;;;;;18.15;12.40;;;;;;;7.35;74.87;101838.57;1608726;85;21475;-90
2022/04/15 10:28:47;;;;;;;17.67;10.50;;;;;;;7.37;74.99;101830.39;1679630;82;21084;-91
2022/04/15 10:31:29;;;;;;;18.30;10.88;;;;;;;7.34;74.98;101836.78;1664784;84;21095;-90
2022/04/15 10:34:09;;;;;;;14.80;9.35;;;;;;;7.32;75.05;101829.64;1642231;84;21831;-91
2022/04/15 10:36:30;;;;;;;12.35;8.23;;;;;;;7.39;75.38;101842.27;1655643;84;21142;-91
2022/04/15 10:39:09;;;;;;;9.83;6.95;;;;;;;7.36;75.37;101840.80;1650455;84;22086;-91
2022/04/15 10:41:53;;;;;;;13.38;7.42;;;;;;;7.25;75.82;101857.22;1657738;84;21079;-91
2022/04/15 10:44:46;;;;;;;13.10;9.30;;;;;;;7.17;75.59;101858.11;1658066;84;21171;-90
2022/04/15 10:47:37;;;;;;;12.65;8.88;;;;;;;7.08;75.70;101852.76;1659809;84;22744;-91
2022/04/15 10:50:10;;;;;;;13.30;9.68;;;;;;;6.87;76.56;101845.48;1687783;82;21076;-91
2022/04/15 10:52:37;;;;;;;17.35;9.83;;;;;;;6.78;77.17;101874.63;1677695;83;21127;-85
2022/04/15 10:55:10;;;;;;;69.80;42.60;;;;;;;6.60;77.32;101852.20;1692898;82;21133;-87
2022/04/15 10:57:41;;;;;;;17.25;11.08;;;;;;;6.52;78.59;101857.81;1674605;83;21128;-88
2022/04/15 11:03:27;;;;;;;24.12;13.10;;;;;;;6.31;79.01;101867.48;1680120;81;21107;-87
2022/04/15 11:05:58;;;;;;;22.77;15.28;;;;;;;6.18;79.53;101866.25;1660635;83;21082;-87
2022/04/15 11:08:27;;;;;;;25.02;13.60;;;;;;;6.09;80.31;101881.37;1684870;81;21088;-87
2022/04/15 11:10:59;;;;;;;24.63;14.78;;;;;;;6.05;81.14;101877.67;1686872;82;21065;-87
2022/04/15 11:13:33;;;;;;;27.55;14.78;;;;;;;6.00;80.61;101866.91;1688384;81;22549;-87
2022/04/15 11:16:13;;;;;;;25.48;13.30;;;;;;;6.06;80.76;101874.23;1702734;82;21097;-91
2022/04/15 11:18:55;;;;;;;30.12;14.28;;;;;;;6.13;80.64;101876.41;1681001;84;21186;-91
2022/04/15 11:21:35;;;;;;;23.90;12.80;;;;;;;6.06;80.37;101873.33;1678468;82;21481;-90
2022/04/15 11:24:06;;;;;;;22.52;13.55;;;;;;;6.03;80.22;101878.88;1695046;82;21137;-89
2022/04/15 11:26:36;;;;;;;27.87;14.73;;;;;;;6.01;80.36;101888.34;1685852;82;22657;-92
2022/04/15 11:29:05;;;;;;;24.60;13.18;;;;;;;5.98;80.02;101885.94;1691444;82;21096;-90
2022/04/15 11:31:37;;;;;;;24.90;13.70;;;;;;;6.03;80.38;101899.78;1687647;82;22230;-91
2022/04/15 11:34:10;;;;;;;26.02;13.95;;;;;;;6.04;80.09;101898.06;1699695;82;21170;-90
2022/04/15 11:36:41;;;;;;;32.42;15.68;;;;;;;6.02;80.08;101894.45;1700736;82;21100;-91